createdAt,value
2023-03-29T00:02:13.980Z,30.06
2023-03-29T00:04:42.281Z,29.92
2023-03-29T00:07:10.323Z,29.73
2023-03-29T00:09:38.474Z,29.89
2023-03-29T00:12:08.280Z,29.78
2023-03-29T00:14:36.317Z,29.80
2023-03-29T00:17:04.488Z,29.58
2023-03-29T00:19:35.722Z,30.04
2023-03-29T00:22:05.861Z,29.88
2023-03-29T00:24:33.832Z,29.79
2023-03-29T00:27:01.794Z,29.57
2023-03-29T00:29:32.572Z,29.63
2023-03-29T00:32:00.506Z,29.91
2023-03-29T00:34:30.895Z,29.65
2023-03-29T00:36:59.092Z,29.44
2023-03-29T00:39:28.139Z,29.60
2023-03-29T00:41:56.324Z,29.64
2023-03-29T00:45:00.689Z,29.47
2023-03-29T00:47:30.867Z,29.36
2023-03-29T00:50:00.375Z,29.84
2023-03-29T00:52:30.257Z,29.63
2023-03-29T00:54:58.761Z,29.88
2023-03-29T00:57:27.748Z,29.77
2023-03-29T00:59:55.873Z,29.72
2023-03-29T01:02:26.150Z,29.57
2023-03-29T01:04:56.462Z,29.78
2023-03-29T01:07:25.799Z,29.63
2023-03-29T01:09:54.579Z,29.41
2023-03-29T01:12:23.771Z,29.59
2023-03-29T01:14:53.016Z,29.57
2023-03-29T01:17:23.120Z,29.84
2023-03-29T01:19:58.216Z,29.45
2023-03-29T01:22:30.920Z,29.63
2023-03-29T01:25:06.442Z,29.84
2023-03-29T01:27:49.956Z,29.37
2023-03-29T01:30:20.121Z,29.49
2023-03-29T01:32:50.580Z,29.46
2023-03-29T01:35:57.769Z,29.42
2023-03-29T01:38:27.783Z,29.37
2023-03-29T01:40:55.796Z,29.44
2023-03-29T01:43:27.937Z,29.58
2023-03-29T01:46:00.937Z,29.32
2023-03-29T01:48:30.359Z,29.50
2023-03-29T01:51:01.345Z,29.25
2023-03-29T01:53:30.931Z,29.55
2023-03-29T01:56:01.321Z,29.58
2023-03-29T01:58:34.049Z,29.49
2023-03-29T02:01:05.907Z,29.62
2023-03-29T02:03:34.001Z,29.38
2023-03-29T02:09:53.831Z,29.50
2023-03-29T02:12:22.310Z,29.36
2023-03-29T02:14:53.962Z,29.66
2023-03-29T02:17:22.945Z,29.56
2023-03-29T02:19:55.152Z,29.59
2023-03-29T02:23:02.194Z,29.33
2023-03-29T02:25:30.292Z,29.29
2023-03-29T02:27:58.292Z,29.59
2023-03-29T02:30:29.401Z,29.37
2023-03-29T02:32:59.613Z,29.51
2023-03-29T02:38:29.837Z,29.54
2023-03-29T02:40:57.752Z,29.27
2023-03-29T02:43:26.082Z,29.52
2023-03-29T02:45:56.542Z,29.52
2023-03-29T02:48:25.441Z,29.21
2023-03-29T02:51:08.824Z,29.29
2023-03-29T02:53:39.616Z,29.20
2023-03-29T02:56:08.887Z,29.68
2023-03-29T02:58:36.998Z,29.31
2023-03-29T03:01:07.633Z,29.50
2023-03-29T03:03:35.905Z,29.48
2023-03-29T03:09:55.029Z,29.46
2023-03-29T03:12:22.957Z,29.60
2023-03-29T03:14:50.912Z,29.03
2023-03-29T03:17:20.266Z,29.04
2023-03-29T03:19:48.292Z,29.56
2023-03-29T03:22:16.384Z,29.40
2023-03-29T03:24:46.191Z,29.19
2023-03-29T03:27:14.188Z,29.11
2023-03-29T03:29:42.269Z,29.29
2023-03-29T03:32:12.429Z,29.14
2023-03-29T03:34:41.834Z,29.09
2023-03-29T03:37:12.057Z,29.25
2023-03-29T03:39:40.104Z,29.35
2023-03-29T03:42:08.589Z,29.22
2023-03-29T03:44:38.046Z,29.30
2023-03-29T03:47:06.796Z,29.36
2023-03-29T03:49:34.848Z,29.04
2023-03-29T03:52:04.213Z,29.27
2023-03-29T03:54:32.181Z,29.31
2023-03-29T03:57:00.206Z,29.28
2023-03-29T03:59:28.865Z,29.06
2023-03-29T04:01:56.909Z,28.84
2023-03-29T04:04:25.634Z,29.70
2023-03-29T04:06:53.729Z,29.57
2023-03-29T04:09:23.357Z,29.45
2023-03-29T04:11:53.194Z,29.37
2023-03-29T04:14:21.625Z,29.13
2023-03-29T04:16:49.554Z,29.24
2023-03-29T04:19:17.675Z,29.38
2023-03-29T04:21:46.140Z,28.97
2023-03-29T04:24:14.150Z,29.06
2023-03-29T04:26:43.549Z,29.23
2023-03-29T04:29:11.870Z,28.99
2023-03-29T04:31:40.020Z,29.45
2023-03-29T04:34:08.416Z,29.30
2023-03-29T04:36:36.923Z,28.91
2023-03-29T04:39:07.945Z,29.38
2023-03-29T04:41:35.947Z,29.33
2023-03-29T04:44:05.349Z,28.99
2023-03-29T04:46:33.445Z,29.23
2023-03-29T04:49:01.663Z,29.20
2023-03-29T04:52:24.498Z,29.16
2023-03-29T04:54:52.630Z,28.98
2023-03-29T04:57:20.705Z,29.10
2023-03-29T04:59:50.105Z,29.15
2023-03-29T05:02:18.119Z,29.04
2023-03-29T05:04:46.250Z,29.00
2023-03-29T05:11:46.456Z,28.72
2023-03-29T05:14:14.386Z,28.89
2023-03-29T05:16:44.321Z,28.94
2023-03-29T05:19:19.149Z,28.97
2023-03-29T05:21:56.130Z,28.95
2023-03-29T05:24:24.288Z,29.19
2023-03-29T05:26:52.804Z,28.79
2023-03-29T05:29:20.834Z,28.97
2023-03-29T05:31:50.259Z,29.18
2023-03-29T05:34:18.293Z,28.81
2023-03-29T05:37:18.317Z,28.80
2023-03-29T05:39:46.342Z,29.00
2023-03-29T05:42:15.656Z,29.00
2023-03-29T05:44:43.627Z,28.81
2023-03-29T05:47:13.057Z,28.86
2023-03-29T05:49:41.106Z,28.93
2023-03-29T05:59:52.282Z,28.76
2023-03-29T06:02:23.135Z,28.62
2023-03-29T06:04:54.185Z,28.70
2023-03-29T06:07:23.460Z,28.96
2023-03-29T06:09:52.836Z,28.85
2023-03-29T06:12:22.216Z,28.99
2023-03-29T06:14:51.625Z,29.13
2023-03-29T06:17:20.140Z,28.65
2023-03-29T06:19:53.123Z,28.67
2023-03-29T06:22:22.273Z,28.82
2023-03-29T06:24:53.548Z,29.53
2023-03-29T06:27:21.481Z,30.30
2023-03-29T06:29:50.615Z,30.10
2023-03-29T06:32:18.652Z,30.41
2023-03-29T06:34:46.670Z,29.29
2023-03-29T06:37:37.572Z,29.56
2023-03-29T06:40:07.037Z,29.82
2023-03-29T06:42:35.745Z,29.62
2023-03-29T06:45:04.304Z,29.50
2023-03-29T06:47:32.965Z,29.36
2023-03-29T06:50:01.124Z,29.44
2023-03-29T06:52:29.109Z,29.36
2023-03-29T06:54:58.486Z,29.10
2023-03-29T06:57:27.495Z,29.54
2023-03-29T06:59:55.552Z,29.21
2023-03-29T07:02:23.453Z,29.40
2023-03-29T07:04:51.770Z,29.07
2023-03-29T07:07:22.697Z,29.36
2023-03-29T07:09:54.101Z,29.06
2023-03-29T07:12:24.163Z,29.25
2023-03-29T07:14:52.853Z,28.98
2023-03-29T07:17:20.837Z,29.26
2023-03-29T07:19:49.376Z,29.29
2023-03-29T07:22:52.046Z,29.51
2023-03-29T07:25:20.352Z,29.56
2023-03-29T07:27:49.750Z,29.27
2023-03-29T07:30:18.621Z,30.08
2023-03-29T07:32:47.023Z,29.94
2023-03-29T07:35:17.446Z,29.84
2023-03-29T07:38:00.874Z,29.69
2023-03-29T07:40:29.595Z,29.63
2023-03-29T07:42:59.065Z,30.07
2023-03-29T07:45:28.721Z,29.82
2023-03-29T07:47:57.431Z,30.42
2023-03-29T07:50:25.850Z,29.95
2023-03-29T07:52:54.007Z,30.25
2023-03-29T07:55:25.359Z,30.40
2023-03-29T07:57:53.636Z,30.11
2023-03-29T08:00:24.953Z,29.96
2023-03-29T08:02:53.454Z,29.96
2023-03-29T08:05:37.812Z,29.92
2023-03-29T08:08:09.650Z,29.97
2023-03-29T08:10:37.975Z,29.87
2023-03-29T08:13:07.433Z,29.66
2023-03-29T08:15:37.876Z,29.57
2023-03-29T08:18:05.964Z,29.69
2023-03-29T08:20:34.052Z,29.30
2023-03-29T08:23:02.130Z,29.49
2023-03-29T08:25:30.173Z,29.63
2023-03-29T08:27:58.168Z,29.39
2023-03-29T08:30:26.197Z,29.44
2023-03-29T08:32:56.286Z,29.17
2023-03-29T08:35:24.275Z,29.37
2023-03-29T08:37:52.862Z,29.06
2023-03-29T08:40:21.891Z,29.19
2023-03-29T08:43:02.569Z,31.86
2023-03-29T08:45:33.941Z,32.32
2023-03-29T08:48:07.148Z,30.90
2023-03-29T08:50:36.632Z,31.04
2023-03-29T08:53:07.070Z,31.39
2023-03-29T08:55:37.144Z,31.05
2023-03-29T08:58:07.646Z,30.78
2023-03-29T09:00:38.279Z,30.89
2023-03-29T09:03:11.522Z,31.08
2023-03-29T09:05:41.369Z,30.97
2023-03-29T09:08:13.422Z,30.91
2023-03-29T09:10:44.171Z,31.08
2023-03-29T09:13:20.679Z,31.14
2023-03-29T09:15:51.884Z,31.19
2023-03-29T09:18:25.736Z,30.98
2023-03-29T09:20:55.500Z,30.95
2023-03-29T09:23:49.166Z,30.74
2023-03-29T09:26:20.305Z,31.04
2023-03-29T09:28:50.883Z,30.69
2023-03-29T09:31:21.816Z,30.77
2023-03-29T09:33:53.536Z,30.86
2023-03-29T09:36:25.046Z,30.89
2023-03-29T09:38:55.703Z,30.77
2023-03-29T09:41:26.721Z,31.22
2023-03-29T09:43:55.018Z,30.78
2023-03-29T09:46:24.625Z,30.72
2023-03-29T09:48:54.001Z,30.85
2023-03-29T09:51:22.960Z,31.45
2023-03-29T09:53:51.017Z,30.85
2023-03-29T09:56:19.108Z,31.24
2023-03-29T09:58:47.724Z,31.45
2023-03-29T10:01:17.488Z,31.23
2023-03-29T10:03:49.300Z,30.86
2023-03-29T10:06:19.317Z,31.00
2023-03-29T10:08:48.539Z,30.99
2023-03-29T10:11:23.444Z,31.34
2023-03-29T10:13:54.923Z,30.74
2023-03-29T10:16:23.772Z,31.00
2023-03-29T10:18:51.909Z,30.79
2023-03-29T10:21:22.262Z,30.78
2023-03-29T10:23:50.533Z,30.95
2023-03-29T10:26:26.086Z,31.25
2023-03-29T10:28:57.172Z,31.06
2023-03-29T10:31:25.154Z,31.29
2023-03-29T10:33:54.005Z,30.75
2023-03-29T10:36:23.826Z,30.74
2023-03-29T10:38:52.344Z,30.98
2023-03-29T10:41:20.259Z,30.93
2023-03-29T10:43:50.841Z,31.14
2023-03-29T10:46:22.840Z,30.87
2023-03-29T10:48:52.146Z,31.06
2023-03-29T10:51:20.506Z,30.66
2023-03-29T10:53:49.930Z,30.83
2023-03-29T10:56:40.400Z,30.57
2023-03-29T10:59:18.634Z,30.75
2023-03-29T11:01:51.326Z,31.01
2023-03-29T11:04:25.830Z,31.07
2023-03-29T11:07:10.558Z,31.17
2023-03-29T11:09:45.196Z,31.30
2023-03-29T11:12:16.058Z,30.77
2023-03-29T11:14:51.263Z,30.89
2023-03-29T11:17:26.640Z,30.64
2023-03-29T11:19:58.561Z,30.64
2023-03-29T11:22:32.805Z,30.69
2023-03-29T11:25:11.380Z,30.67
2023-03-29T11:27:41.827Z,30.76
2023-03-29T11:30:12.389Z,30.70
2023-03-29T11:32:46.592Z,30.31
2023-03-29T11:35:26.045Z,30.21
2023-03-29T11:37:56.881Z,30.24
2023-03-29T11:40:36.831Z,30.48
2023-03-29T11:43:05.919Z,31.03
2023-03-29T11:45:35.625Z,31.09
2023-03-29T11:48:04.177Z,32.10
2023-03-29T11:50:36.521Z,33.85
2023-03-29T11:53:07.025Z,33.99
2023-03-29T11:55:37.143Z,34.67
2023-03-29T11:58:07.977Z,35.29
2023-03-29T12:00:37.737Z,35.78
2023-03-29T12:03:08.680Z,36.55
2023-03-29T12:05:38.029Z,36.25
2023-03-29T12:08:07.553Z,35.59
2023-03-29T12:10:37.686Z,34.77
2023-03-29T12:13:07.442Z,35.91
2023-03-29T12:15:37.280Z,34.67
2023-03-29T12:18:08.604Z,34.29
2023-03-29T12:20:37.378Z,34.31
2023-03-29T12:23:06.094Z,33.99
2023-03-29T12:25:41.881Z,34.92
2023-03-29T12:28:33.317Z,35.44
2023-03-29T12:31:05.763Z,35.17
2023-03-29T12:33:43.671Z,36.05
2023-03-29T12:36:20.804Z,35.56
2023-03-29T12:38:48.948Z,35.37
2023-03-29T12:41:19.519Z,34.87
2023-03-29T12:43:48.209Z,34.31
2023-03-29T12:46:17.430Z,34.61
2023-03-29T12:48:46.663Z,34.75
2023-03-29T12:51:15.975Z,34.72
2023-03-29T12:53:44.604Z,34.76
2023-03-29T12:56:18.283Z,35.14
2023-03-29T12:58:57.273Z,34.72
2023-03-29T13:01:27.767Z,35.12
2023-03-29T13:04:15.616Z,34.71
2023-03-29T13:07:02.893Z,34.51
2023-03-29T13:09:34.340Z,34.13
2023-03-29T13:12:08.918Z,34.43
2023-03-29T13:14:37.814Z,34.05
2023-03-29T13:17:17.685Z,34.09
2023-03-29T13:19:48.416Z,33.81
2023-03-29T13:22:22.138Z,33.99
2023-03-29T13:25:05.276Z,33.74
2023-03-29T13:27:39.789Z,33.69
2023-03-29T13:30:25.183Z,33.98
2023-03-29T13:32:58.479Z,33.57
2023-03-29T13:35:33.116Z,33.64
2023-03-29T13:38:05.271Z,33.67
2023-03-29T13:40:43.010Z,33.29
2023-03-29T13:43:20.487Z,33.62
2023-03-29T13:46:04.072Z,33.46
2023-03-29T13:48:33.617Z,33.47
2023-03-29T13:51:08.079Z,33.56
2023-03-29T13:53:37.823Z,33.39
2023-03-29T13:58:39.290Z,33.38
2023-03-29T14:01:11.094Z,33.44
2023-03-29T14:03:42.384Z,33.32
2023-03-29T14:06:10.549Z,33.54
2023-03-29T14:08:41.086Z,33.27
2023-03-29T14:11:09.801Z,33.32
2023-03-29T14:13:39.176Z,33.13
2023-03-29T14:16:09.095Z,33.42
2023-03-29T14:18:38.985Z,32.99
2023-03-29T14:21:07.588Z,33.19
2023-03-29T14:23:38.085Z,33.06
2023-03-29T14:26:07.705Z,32.86
2023-03-29T14:28:35.792Z,32.93
2023-03-29T14:31:05.467Z,33.06
2023-03-29T14:33:34.769Z,33.02
2023-03-29T14:36:04.268Z,32.80
2023-03-29T14:38:32.662Z,32.84
2023-03-29T14:41:01.229Z,32.65
2023-03-29T14:43:31.047Z,32.68
2023-03-29T14:45:59.221Z,32.91
2023-03-29T14:48:28.740Z,32.96
2023-03-29T14:50:56.808Z,32.82
2023-03-29T14:53:24.780Z,32.47
2023-03-29T14:55:53.730Z,32.79
2023-03-29T14:58:22.554Z,32.68
2023-03-29T15:00:51.821Z,32.52
2023-03-29T15:03:22.857Z,32.76
2023-03-29T15:05:53.580Z,32.80
2023-03-29T15:08:28.135Z,32.27
2023-03-29T15:10:56.140Z,32.33
2023-03-29T15:13:24.963Z,32.63
2023-03-29T15:15:53.871Z,32.39
2023-03-29T15:18:23.771Z,32.33
2023-03-29T15:20:53.285Z,32.55
2023-03-29T15:23:23.696Z,32.27
2023-03-29T15:25:54.840Z,32.34
2023-03-29T15:28:28.456Z,32.59
2023-03-29T15:31:07.704Z,32.34
2023-03-29T15:33:37.243Z,32.07
2023-03-29T15:36:07.846Z,32.06
2023-03-29T15:38:43.268Z,32.32
2023-03-29T15:41:12.380Z,32.14
2023-03-29T15:43:41.631Z,31.87
2023-03-29T15:46:17.076Z,32.10
2023-03-29T15:48:45.113Z,31.96
2023-03-29T15:51:14.667Z,32.13
2023-03-29T15:53:42.876Z,31.92
2023-03-29T15:56:11.537Z,31.82
2023-03-29T15:58:39.706Z,31.91
2023-03-29T16:01:12.441Z,31.79
2023-03-29T16:03:40.560Z,32.12
2023-03-29T16:06:11.681Z,32.17
2023-03-29T16:08:41.968Z,31.84
2023-03-29T16:11:10.248Z,32.27
2023-03-29T16:13:38.244Z,31.70
2023-03-29T16:16:07.586Z,32.05
2023-03-29T16:18:36.251Z,31.91
2023-03-29T16:21:04.769Z,31.82
2023-03-29T16:23:32.857Z,31.91
2023-03-29T16:26:02.572Z,31.52
2023-03-29T16:28:30.638Z,31.63
2023-03-29T16:30:58.705Z,31.78
2023-03-29T16:33:27.017Z,31.30
2023-03-29T16:35:55.131Z,31.70
2023-03-29T16:38:24.374Z,31.39
2023-03-29T16:40:52.733Z,31.19
2023-03-29T16:43:22.135Z,31.47
2023-03-29T16:45:50.136Z,31.24
2023-03-29T16:48:19.168Z,31.54
2023-03-29T16:50:49.440Z,31.19
2023-03-29T16:53:18.345Z,31.44
2023-03-29T16:55:49.192Z,31.55
2023-03-29T16:58:17.205Z,31.17
2023-03-29T17:00:48.386Z,31.01
2023-03-29T17:03:17.019Z,31.47
2023-03-29T17:05:48.495Z,31.43
2023-03-29T17:08:16.489Z,31.44
2023-03-29T17:10:44.737Z,31.12
2023-03-29T17:13:13.083Z,31.28
2023-03-29T17:15:41.057Z,31.42
2023-03-29T17:18:10.626Z,31.06
2023-03-29T17:20:39.829Z,31.26
2023-03-29T17:23:08.969Z,31.45
2023-03-29T17:25:37.214Z,31.31
2023-03-29T17:28:05.316Z,31.49
2023-03-29T17:30:34.846Z,30.87
2023-03-29T17:33:03.291Z,31.23
2023-03-29T17:35:32.935Z,31.21
2023-03-29T17:38:01.414Z,31.23
2023-03-29T17:40:29.332Z,31.19
2023-03-29T17:42:57.335Z,31.11
2023-03-29T17:45:25.846Z,31.26
2023-03-29T17:47:53.906Z,30.80
2023-03-29T17:50:22.186Z,31.31
2023-03-29T17:52:51.626Z,30.73
2023-03-29T17:55:21.066Z,30.98
2023-03-29T17:57:49.951Z,30.81
2023-03-29T18:00:18.785Z,31.36
2023-03-29T18:02:46.908Z,30.72
2023-03-29T18:05:14.996Z,31.03
2023-03-29T18:07:42.919Z,30.51
2023-03-29T18:10:12.695Z,30.87
2023-03-29T18:12:40.723Z,30.67
2023-03-29T18:15:09.902Z,30.79
2023-03-29T18:17:37.943Z,30.88
2023-03-29T18:20:11.395Z,30.38
2023-03-29T18:22:39.478Z,30.69
2023-03-29T18:25:09.448Z,30.65
2023-03-29T18:27:39.112Z,30.69
2023-03-29T18:30:08.805Z,30.87
2023-03-29T18:32:36.986Z,30.87
2023-03-29T18:35:06.281Z,30.48
2023-03-29T18:37:34.305Z,30.74
2023-03-29T18:40:10.420Z,31.09
2023-03-29T18:42:39.901Z,31.21
2023-03-29T18:45:09.427Z,31.05
2023-03-29T18:47:37.488Z,31.54
2023-03-29T18:50:06.176Z,31.39
2023-03-29T18:52:34.218Z,31.13
2023-03-29T18:55:02.107Z,30.95
2023-03-29T18:57:30.181Z,30.80
2023-03-29T18:59:59.983Z,30.90
2023-03-29T19:02:28.085Z,30.85
2023-03-29T19:04:56.220Z,30.64
2023-03-29T19:07:24.289Z,30.64
2023-03-29T19:09:52.324Z,30.64
2023-03-29T19:12:20.312Z,30.84
2023-03-29T19:14:48.392Z,30.69
2023-03-29T19:17:17.801Z,30.72
2023-03-29T19:19:45.691Z,30.75
2023-03-29T19:22:13.701Z,30.85
2023-03-29T19:24:41.735Z,30.67
2023-03-29T19:27:12.040Z,30.61
2023-03-29T19:29:41.281Z,30.62
2023-03-29T19:32:09.231Z,30.60
2023-03-29T19:34:38.786Z,30.33
2023-03-29T19:37:06.753Z,30.36
2023-03-29T19:39:35.106Z,30.84
2023-03-29T19:59:41.299Z,30.54
2023-03-29T20:02:12.289Z,30.56
2023-03-29T20:04:40.623Z,30.80
2023-03-29T20:07:08.762Z,30.47
2023-03-29T20:09:36.707Z,30.46
2023-03-29T20:23:58.871Z,30.44
2023-03-29T20:30:58.802Z,30.71
2023-03-29T20:33:26.857Z,30.81
2023-03-29T20:35:54.959Z,30.76
2023-03-29T20:38:23.085Z,30.89
2023-03-29T20:40:52.425Z,30.61
2023-03-29T20:43:20.461Z,30.41
2023-03-29T20:45:54.014Z,30.36
2023-03-29T20:48:23.643Z,30.77
2023-03-29T20:50:52.045Z,30.81
2023-03-29T20:53:20.794Z,30.64
2023-03-29T20:55:48.958Z,30.59
2023-03-29T20:58:18.296Z,30.47
2023-03-29T21:00:46.918Z,30.38
2023-03-29T21:03:14.950Z,30.27
2023-03-29T21:05:43.410Z,30.35
2023-03-29T21:08:11.391Z,30.42
2023-03-29T21:10:48.930Z,30.46
2023-03-29T21:13:18.303Z,30.43
2023-03-29T21:15:47.097Z,30.22
2023-03-29T21:18:15.140Z,30.44
2023-03-29T21:20:43.228Z,30.25
2023-03-29T21:23:11.262Z,30.20
2023-03-29T21:26:31.956Z,30.08
2023-03-29T21:29:01.493Z,30.22
2023-03-29T21:31:29.636Z,30.43
2023-03-29T21:33:57.563Z,30.14
2023-03-29T21:36:25.716Z,29.89
2023-03-29T21:38:53.772Z,30.22
2023-03-29T22:08:20.160Z,29.82
2023-03-29T22:14:11.565Z,30.11
2023-03-29T22:16:40.256Z,30.09
2023-03-29T22:19:09.152Z,30.09
2023-03-29T22:21:38.245Z,29.88
2023-03-29T22:24:08.936Z,29.89
2023-03-29T22:26:37.634Z,29.67
2023-03-29T22:29:07.672Z,29.50
2023-03-29T22:31:38.171Z,29.79
2023-03-29T22:34:07.197Z,29.72
2023-03-29T22:36:37.620Z,29.55
2023-03-29T22:39:11.613Z,29.52
2023-03-29T22:41:41.147Z,29.62
2023-03-29T22:44:09.158Z,29.42
2023-03-29T22:46:38.509Z,29.56
2023-03-29T22:49:06.690Z,29.37
2023-03-29T22:51:35.852Z,29.32
2023-03-29T22:54:05.389Z,29.70
2023-03-29T22:56:36.398Z,29.30
2023-03-29T22:59:05.568Z,29.42
2023-03-29T23:01:33.602Z,29.62
2023-03-29T23:04:03.075Z,29.41
2023-03-29T23:06:32.441Z,29.61
2023-03-29T23:09:02.670Z,29.75
2023-03-29T23:11:32.602Z,29.63
2023-03-29T23:14:04.204Z,29.51
2023-03-29T23:16:33.871Z,29.45
2023-03-29T23:19:02.996Z,29.12
2023-03-29T23:21:32.287Z,29.25
2023-03-29T23:24:00.676Z,29.32
2023-03-29T23:26:29.600Z,29.60
2023-03-29T23:28:58.839Z,29.34
2023-03-29T23:31:29.394Z,29.44
2023-03-29T23:33:59.091Z,29.43
2023-03-29T23:36:31.214Z,29.36
2023-03-29T23:39:00.493Z,29.24
2023-03-29T23:41:30.766Z,29.46
2023-03-29T23:44:00.782Z,29.01
2023-03-29T23:46:31.499Z,29.21
2023-03-29T23:49:01.290Z,29.15
2023-03-29T23:51:30.466Z,29.30
2023-03-29T23:53:59.530Z,29.19
2023-03-29T23:56:29.141Z,28.91
2023-03-29T23:58:59.281Z,28.97
